TimeMST,TemperatureF,Dew PointF,Humidity,Sea Level PressureIn,VisibilityMPH,Wind Direction,Wind SpeedMPH,Gust SpeedMPH,PrecipitationIn,Events,Conditions,WindDirDegrees,DateUTC
12:54 AM,42.1,28.0,58,29.48,10.0,SW,4.6,-,N/A,,Clear,220,2013-03-09 07:54:00
1:54 AM,42.1,28.0,58,29.47,10.0,West,6.9,-,N/A,,Clear,270,2013-03-09 08:54:00
2:54 AM,39.9,28.9,65,29.44,10.0,West,10.4,-,N/A,,Clear,260,2013-03-09 09:54:00
3:54 AM,37.0,27.0,67,29.45,10.0,WNW,6.9,-,N/A,,Clear,300,2013-03-09 10:54:00
4:54 AM,41.0,25.0,53,29.45,10.0,SW,17.3,20.7,N/A,,Clear,230,2013-03-09 11:54:00
5:54 AM,42.1,19.9,41,29.46,10.0,WSW,32.2,38.0,N/A,,Mostly Cloudy,240,2013-03-09 12:54:00
6:54 AM,43.0,19.0,38,29.46,10.0,WSW,21.9,29.9,N/A,,Overcast,250,2013-03-09 13:54:00
7:54 AM,44.1,18.0,35,29.48,10.0,NW,6.9,-,N/A,,Overcast,310,2013-03-09 14:54:00
8:54 AM,39.0,28.9,67,29.54,10.0,NE,8.1,-,N/A,,Overcast,40,2013-03-09 15:54:00
9:54 AM,39.9,24.1,53,29.55,8.0,South,5.8,-,N/A,,Overcast,180,2013-03-09 16:54:00
10:54 AM,41.0,21.9,47,29.52,10.0,NNW,26.5,34.5,N/A,,Overcast,340,2013-03-09 17:54:00
11:54 AM,34.0,28.0,79,29.57,8.0,NNW,24.2,36.8,0.00,Snow,Light Snow,330,2013-03-09 18:54:00
12:05 PM,33.8,28.4,81,29.64,3.0,NW,27.6,34.5,0.00,Snow,Light Snow,320,2013-03-09 19:05:00
12:09 PM,33.8,28.4,81,29.64,1.5,NW,25.3,33.4,0.00,Snow,Light Snow,320,2013-03-09 19:09:00
12:19 PM,32.0,28.4,87,29.64,0.8,NW,23.0,32.2,0.00,Snow,Light Snow,320,2013-03-09 19:19:00
12:32 PM,30.2,28.4,93,29.65,0.2,NW,21.9,32.2,0.00,Fog-Snow,Heavy Snow,320,2013-03-09 19:32:00
12:44 PM,30.2,28.4,93,29.65,0.2,NW,18.4,27.6,0.00,Fog-Snow,Heavy Snow,320,2013-03-09 19:44:00
12:54 PM,30.9,28.9,92,29.62,0.2,NW,21.9,-,0.00,Fog-Snow,Heavy Snow,320,2013-03-09 19:54:00
1:05 PM,30.2,28.4,93,29.66,0.2,NW,19.6,27.6,0.00,Fog-Snow,Heavy Snow,320,2013-03-09 20:05:00
1:12 PM,30.2,28.4,93,29.66,0.2,NW,18.4,-,0.00,Fog-Snow,Snow,320,2013-03-09 20:12:00
1:54 PM,30.9,28.9,92,29.65,0.2,NW,13.8,-,0.00,Fog-Snow,Snow,310,2013-03-09 20:54:00
2:54 PM,30.9,30.0,96,29.70,0.2,NNW,15.0,-,0.00,Fog-Snow,Heavy Snow,330,2013-03-09 21:54:00
3:11 PM,30.2,28.4,93,29.73,0.5,North,19.6,28.8,0.00,Fog-Snow,Snow,350,2013-03-09 22:11:00
3:18 PM,30.2,28.4,93,29.73,0.2,North,16.1,-,0.00,Fog-Snow,Snow,350,2013-03-09 22:18:00
3:30 PM,30.2,28.4,93,29.74,0.5,North,15.0,-,0.00,Fog-Snow,Snow,360,2013-03-09 22:30:00
3:44 PM,30.2,28.4,93,29.75,0.2,North,19.6,25.3,0.00,Fog-Snow,Snow,360,2013-03-09 22:44:00
3:54 PM,30.0,28.0,92,29.76,0.2,North,17.3,26.5,0.00,Fog-Snow,Snow,360,2013-03-09 22:54:00
4:36 PM,28.4,26.6,93,29.78,0.5,North,19.6,27.6,0.00,Fog-Snow,Snow,10,2013-03-09 23:36:00
4:46 PM,28.4,26.6,93,29.79,0.2,North,15.0,-,0.00,Fog-Snow,Snow,10,2013-03-09 23:46:00
4:54 PM,28.9,27.0,92,29.79,0.5,North,13.8,-,0.00,Fog-Snow,Light Snow,10,2013-03-09 23:54:00
5:07 PM,28.4,26.6,93,29.81,1.0,North,15.0,-,0.00,Snow,Light Snow,360,2013-03-10 00:07:00
5:19 PM,30.2,26.6,86,29.82,1.2,North,21.9,29.9,0.01,Snow,Light Snow,360,2013-03-10 00:19:00
5:28 PM,28.4,26.6,93,29.83,1.5,North,23.0,33.4,0.01,Snow,Light Snow,350,2013-03-10 00:28:00
5:36 PM,28.4,26.6,93,29.83,2.0,North,24.2,31.1,0.01,Snow,Light Snow,360,2013-03-10 00:36:00
5:41 PM,28.4,26.6,93,29.84,1.8,North,21.9,31.1,0.01,Snow,Light Snow,360,2013-03-10 00:41:00
5:54 PM,28.9,26.1,89,29.83,1.8,North,23.0,29.9,0.01,Snow,Light Snow,350,2013-03-10 00:54:00
6:16 PM,28.4,26.6,93,29.86,2.0,North,17.3,25.3,0.00,Snow,Light Snow,350,2013-03-10 01:16:00
6:21 PM,28.4,26.6,93,29.87,1.8,North,16.1,25.3,0.00,Snow,Light Snow,350,2013-03-10 01:21:00
6:38 PM,28.4,26.6,93,29.88,2.0,North,13.8,-,0.00,Snow,Light Snow,350,2013-03-10 01:38:00
6:54 PM,28.0,26.1,92,29.87,2.0,North,8.1,-,0.00,Snow,Light Snow,350,2013-03-10 01:54:00
7:03 PM,28.4,26.6,93,29.89,1.8,North,13.8,19.6,0.00,Snow,Light Snow,360,2013-03-10 02:03:00
7:06 PM,28.4,26.6,93,29.88,2.0,North,19.6,25.3,0.00,Snow,Light Snow,360,2013-03-10 02:06:00
7:11 PM,28.4,26.6,93,29.88,3.0,North,19.6,26.5,0.00,Snow,Light Snow,360,2013-03-10 02:11:00
7:26 PM,28.4,26.6,93,29.88,2.5,North,28.8,38.0,0.00,Snow,Light Snow,360,2013-03-10 02:26:00
7:47 PM,28.4,26.6,93,29.92,1.5,North,18.4,28.8,0.00,Snow,Light Snow,350,2013-03-10 02:47:00
7:54 PM,28.9,27.0,92,29.91,1.0,North,18.4,-,0.00,Snow,Light Snow,350,2013-03-10 02:54:00
8:03 PM,28.4,26.6,93,29.93,0.8,North,15.0,26.5,0.00,Snow,Light Snow,350,2013-03-10 03:03:00
8:11 PM,28.4,26.6,93,29.94,1.0,North,13.8,-,0.00,Snow,Light Snow,360,2013-03-10 03:11:00
8:19 PM,28.4,26.6,93,29.95,0.8,North,15.0,-,0.00,Snow,Light Snow,360,2013-03-10 03:19:00
8:54 PM,28.0,26.1,92,29.97,0.8,North,18.4,32.2,0.00,Snow,Light Snow,360,2013-03-10 03:54:00
9:17 PM,28.4,24.8,86,29.98,1.0,NNE,23.0,33.4,0.00,Snow,Light Snow,20,2013-03-10 04:17:00
9:54 PM,28.0,25.0,88,30.01,1.8,NNE,21.9,26.5,0.00,Snow,Light Snow,20,2013-03-10 04:54:00
10:03 PM,28.4,24.8,86,30.01,2.0,NNE,15.0,24.2,0.00,Snow,Light Snow,20,2013-03-10 05:03:00
10:13 PM,28.4,23.0,80,30.01,4.0,NNE,18.4,25.3,0.00,Snow,Light Snow,20,2013-03-10 05:13:00
10:24 PM,28.4,21.2,74,30.02,9.0,NNE,15.0,21.9,0.00,,Overcast,30,2013-03-10 05:24:00
10:54 PM,28.0,19.9,72,30.03,10.0,North,11.5,-,0.00,,Scattered Clouds,10,2013-03-10 05:54:00
11:54 PM,25.0,17.1,72,30.09,10.0,NNE,11.5,-,N/A,,Mostly Cloudy,20,2013-03-10 06:54:00